Terminal Aerodrome Forecast
Issued by NWS Portland, OR

Home | Current Version | Previous Version | Text Only | Print | Product List | Glossary On
Versions: 1 2 3 4 5 6 7 8 9 10 11 12 13 14 15 16 17 18 19 20 21 22 23 24 25
000
FTUS46 KPQR 231133
TAFPDX
TAF
KPDX 231133Z 2312/2412 19011KT P6SM -RA SCT025 OVC040
      TEMPO 2313/2317 BKN025 BKN040
     FM232000 18014KT P6SM -RA BKN025 OVC035
     FM240000 18011KT P6SM -RA BKN015 OVC025
     FM240600 17015G25KT P6SM -RA SCT015 OVC030=

USA.gov is the U.S. government's official web portal to all federal, state and local government web resources and services.